createdAt,value
2018-07-22T00:03:54.180Z,3.67
2018-07-22T00:08:57.423Z,3.70
2018-07-22T00:14:01.418Z,3.33
2018-07-22T00:19:05.051Z,3.50
2018-07-22T00:24:08.261Z,3.20
2018-07-22T00:29:12.181Z,3.93
2018-07-22T00:34:15.562Z,3.97
2018-07-22T00:39:19.044Z,4.23
2018-07-22T00:44:23.034Z,3.60
2018-07-22T00:49:26.930Z,3.63
2018-07-22T00:54:30.136Z,4.23
2018-07-22T00:59:34.200Z,3.30
2018-07-22T01:04:38.051Z,2.93
2018-07-22T01:09:41.742Z,4.30
2018-07-22T01:14:45.346Z,3.90
2018-07-22T01:19:49.461Z,4.30
2018-07-22T01:24:52.850Z,4.00
2018-07-22T01:29:56.406Z,4.80
2018-07-22T01:34:59.719Z,4.23
2018-07-22T01:40:03.427Z,4.10
2018-07-22T01:45:08.029Z,5.27
2018-07-22T01:50:11.362Z,4.80
2018-07-22T01:55:14.590Z,4.07
2018-07-22T02:00:17.904Z,3.93
2018-07-22T02:05:21.225Z,3.47
2018-07-22T02:10:24.545Z,3.60
2018-07-22T02:15:28.515Z,3.83
2018-07-22T02:20:32.061Z,5.33
2018-07-22T02:25:35.651Z,5.30
2018-07-22T02:30:39.300Z,3.90
2018-07-22T02:35:42.630Z,4.80
2018-07-22T02:40:46.289Z,4.30
2018-07-22T02:45:50.466Z,4.33
2018-07-22T02:50:53.911Z,3.83
2018-07-22T02:55:57.460Z,4.33
2018-07-22T03:01:01.354Z,3.53
2018-07-22T03:06:07.850Z,3.80
2018-07-22T03:11:12.652Z,3.40
2018-07-22T03:16:18.457Z,4.43
2018-07-22T03:21:25.900Z,3.70
2018-07-22T03:26:30.834Z,4.33
2018-07-22T03:31:34.664Z,5.80
2018-07-22T03:36:38.401Z,4.40
2018-07-22T03:41:42.154Z,5.70
2018-07-22T03:46:48.593Z,6.03
2018-07-22T03:51:52.743Z,7.27
2018-07-22T03:56:56.330Z,8.07
2018-07-22T04:02:00.025Z,4.90
2018-07-22T04:07:10.743Z,4.27
2018-07-22T04:12:14.069Z,7.20
2018-07-22T04:17:18.505Z,4.80
2018-07-22T04:22:32.553Z,4.80
2018-07-22T04:27:36.313Z,6.63
2018-07-22T04:32:39.585Z,6.90
2018-07-22T04:37:42.809Z,6.60
2018-07-22T04:42:46.542Z,6.83
2018-07-22T04:47:52.079Z,5.37
2018-07-22T04:52:55.371Z,5.93
2018-07-22T04:57:59.184Z,6.17
2018-07-22T05:03:03.002Z,6.07
2018-07-22T05:08:06.472Z,6.77
2018-07-22T05:13:09.786Z,6.47
2018-07-22T05:18:13.560Z,6.97
2018-07-22T05:23:16.777Z,5.47
2018-07-22T05:28:20.974Z,5.50
2018-07-22T05:33:24.397Z,6.47
2018-07-22T05:38:27.653Z,6.73
2018-07-22T05:43:31.890Z,5.90
2018-07-22T05:48:36.191Z,6.70
2018-07-22T05:53:39.394Z,6.90
2018-07-22T05:58:43.007Z,5.30
2018-07-22T06:03:46.435Z,5.60
2018-07-22T06:08:51.417Z,5.33
2018-07-22T06:13:54.691Z,6.10
2018-07-22T06:18:58.125Z,6.63
2018-07-22T06:24:01.333Z,6.73
2018-07-22T06:29:04.966Z,7.37
2018-07-22T06:34:09.590Z,6.40
2018-07-22T06:39:13.332Z,7.07
2018-07-22T06:44:16.823Z,5.40
2018-07-22T06:49:21.358Z,6.17
2018-07-22T06:54:24.868Z,6.10
2018-07-22T06:59:28.754Z,6.13
2018-07-22T07:04:33.289Z,6.43
2018-07-22T07:09:36.694Z,5.77
2018-07-22T07:14:40.280Z,4.63
2018-07-22T07:19:43.759Z,4.60
2018-07-22T07:24:47.420Z,4.53
2018-07-22T07:29:50.990Z,4.03
2018-07-22T07:34:55.070Z,3.90
2018-07-22T07:39:59.107Z,2.90
2018-07-22T07:45:02.872Z,2.40
2018-07-22T07:50:08.779Z,3.10
2018-07-22T07:55:13.941Z,3.03
2018-07-22T08:00:19.053Z,3.10
2018-07-22T08:05:22.689Z,2.73
2018-07-22T08:10:26.504Z,2.50
2018-07-22T08:15:29.993Z,2.23
2018-07-22T08:20:33.966Z,2.60
2018-07-22T08:25:43.811Z,2.50
2018-07-22T08:30:47.813Z,2.77
2018-07-22T08:35:51.388Z,2.27
2018-07-22T08:41:04.752Z,3.50
2018-07-22T08:46:08.868Z,2.40
2018-07-22T08:51:12.693Z,2.20
2018-07-22T08:56:16.297Z,2.83
2018-07-22T09:01:19.949Z,2.90
2018-07-22T09:06:24.083Z,2.93
2018-07-22T09:11:29.167Z,2.77
2018-07-22T09:16:34.293Z,2.43
2018-07-22T09:21:38.925Z,3.00
2018-07-22T09:26:42.487Z,2.73
2018-07-22T09:31:46.062Z,2.80
2018-07-22T09:36:50.833Z,2.97
2018-07-22T09:41:54.535Z,2.83
2018-07-22T09:46:58.345Z,2.37
2018-07-22T09:52:02.988Z,2.30
2018-07-22T09:57:06.491Z,3.00
2018-07-22T10:02:09.901Z,2.93
2018-07-22T10:07:13.397Z,3.67
2018-07-22T10:12:20.953Z,4.13
2018-07-22T10:17:25.113Z,3.30
2018-07-22T10:22:28.601Z,4.00
2018-07-22T10:27:32.460Z,4.23
2018-07-22T10:32:35.979Z,3.93
2018-07-22T10:37:39.521Z,4.70
2018-07-22T10:42:49.539Z,3.57
2018-07-22T10:47:53.293Z,3.73
2018-07-22T10:52:58.094Z,4.00
2018-07-22T10:58:01.665Z,4.00
2018-07-22T11:03:06.507Z,4.17
2018-07-22T11:08:10.001Z,3.80
2018-07-22T11:13:14.397Z,4.07
2018-07-22T11:18:18.866Z,3.70
2018-07-22T11:23:25.348Z,4.27
2018-07-22T11:28:30.384Z,3.70
2018-07-22T11:33:40.412Z,3.47
2018-07-22T11:38:45.348Z,2.97
2018-07-22T11:43:49.365Z,3.60
2018-07-22T11:48:52.681Z,3.80
2018-07-22T11:53:57.200Z,3.70
2018-07-22T11:59:01.040Z,3.50
2018-07-22T12:04:05.068Z,4.13
2018-07-22T12:09:10.433Z,3.80
2018-07-22T12:14:13.819Z,4.30
2018-07-22T12:19:17.221Z,3.40
2018-07-22T12:24:20.776Z,3.60
2018-07-22T12:29:24.233Z,3.50
2018-07-22T12:34:27.676Z,2.90
2018-07-22T12:39:31.316Z,3.30
2018-07-22T12:44:34.657Z,4.07
2018-07-22T12:49:38.182Z,4.73
2018-07-22T12:54:41.640Z,4.27
2018-07-22T12:59:45.057Z,4.80
2018-07-22T13:04:48.596Z,7.10
2018-07-22T13:09:53.219Z,4.10
2018-07-22T13:14:58.426Z,4.23
2018-07-22T13:20:06.242Z,4.33
2018-07-22T13:25:15.419Z,3.10
2018-07-22T13:30:19.499Z,3.90
2018-07-22T13:35:23.059Z,3.90
2018-07-22T13:40:27.511Z,3.17
2018-07-22T13:45:31.400Z,3.43
2018-07-22T13:50:34.900Z,3.17
2018-07-22T13:55:38.479Z,3.00
2018-07-22T14:00:41.942Z,3.70
2018-07-22T14:05:45.374Z,4.57
2018-07-22T14:10:48.844Z,4.00
2018-07-22T14:15:52.814Z,3.80
2018-07-22T14:20:56.346Z,4.17
2018-07-22T14:25:59.895Z,4.90
2018-07-22T14:31:03.400Z,4.77
2018-07-22T14:36:06.945Z,4.77
2018-07-22T14:41:10.441Z,4.50
2018-07-22T14:46:13.975Z,3.70
2018-07-22T14:51:17.875Z,3.50
2018-07-22T14:56:25.678Z,3.40
2018-07-22T15:01:29.276Z,2.63
2018-07-22T15:06:32.839Z,2.90
2018-07-22T15:11:37.319Z,3.17
2018-07-22T15:16:40.828Z,2.40
2018-07-22T15:21:44.704Z,2.63
2018-07-22T15:26:48.402Z,3.13
2018-07-22T15:31:52.856Z,2.87
2018-07-22T15:36:56.343Z,3.00
2018-07-22T15:41:59.763Z,3.60
2018-07-22T15:47:03.365Z,3.07
2018-07-22T15:52:06.911Z,2.60
2018-07-22T15:57:10.445Z,2.90
2018-07-22T16:02:14.313Z,2.77
2018-07-22T16:07:17.815Z,2.93
2018-07-22T16:12:21.154Z,2.60
2018-07-22T16:17:24.489Z,4.23
2018-07-22T16:22:27.732Z,3.70
2018-07-22T16:27:31.010Z,3.40
2018-07-22T16:32:37.644Z,3.40
2018-07-22T16:37:41.141Z,4.30
2018-07-22T16:42:44.523Z,3.33
2018-07-22T16:47:48.034Z,3.80
2018-07-22T16:52:51.353Z,3.53
2018-07-22T16:57:54.926Z,4.47
2018-07-22T17:03:01.100Z,4.20
2018-07-22T17:08:04.932Z,3.87
2018-07-22T17:13:09.101Z,3.97
2018-07-22T17:18:12.348Z,4.40
2018-07-22T17:23:15.598Z,4.87
2018-07-22T17:28:18.986Z,4.90
2018-07-22T17:33:22.263Z,4.03
2018-07-22T17:38:25.914Z,4.60
2018-07-22T17:43:29.192Z,4.93
2018-07-22T17:48:32.471Z,4.47
2018-07-22T17:53:35.694Z,4.77
2018-07-22T17:58:39.454Z,5.83
2018-07-22T18:03:46.627Z,5.97
2018-07-22T18:08:50.383Z,6.00
2018-07-22T18:13:53.717Z,5.10
2018-07-22T18:18:56.946Z,5.80
2018-07-22T18:24:00.230Z,5.23
2018-07-22T18:29:03.757Z,4.93
2018-07-22T18:34:07.129Z,5.27
2018-07-22T18:39:11.092Z,5.40
2018-07-22T18:44:14.989Z,5.27
2018-07-22T18:49:18.831Z,4.63
2018-07-22T18:54:22.071Z,5.97
2018-07-22T18:59:28.573Z,6.83
2018-07-22T19:04:32.106Z,6.53
2018-07-22T19:09:35.446Z,7.10
2018-07-22T19:14:40.059Z,6.80
2018-07-22T19:19:45.823Z,7.00
2018-07-22T19:24:50.199Z,6.80
2018-07-22T19:29:54.798Z,6.67
2018-07-22T19:34:58.031Z,6.20
2018-07-22T19:40:01.325Z,5.30
2018-07-22T19:45:05.049Z,4.17
2018-07-22T19:50:09.145Z,4.40
2018-07-22T19:55:12.439Z,4.40
2018-07-22T20:00:16.773Z,3.87
2018-07-22T20:05:19.994Z,3.70
2018-07-22T20:10:23.250Z,3.80
2018-07-22T20:15:26.853Z,3.30
2018-07-22T20:20:30.122Z,3.23
2018-07-22T20:25:33.301Z,3.33
2018-07-22T20:30:40.038Z,3.30
2018-07-22T20:35:44.017Z,3.83
2018-07-22T20:40:47.268Z,4.90
2018-07-22T20:45:50.498Z,3.77
2018-07-22T20:50:53.685Z,3.47
2018-07-22T20:55:56.900Z,3.67
2018-07-22T21:01:01.292Z,4.23
2018-07-22T21:06:11.171Z,4.03
2018-07-22T21:11:15.035Z,3.63
2018-07-22T21:16:18.390Z,4.57
2018-07-22T21:21:21.615Z,5.00
2018-07-22T21:26:24.813Z,5.77
2018-07-22T21:31:28.688Z,5.73
2018-07-22T21:36:32.014Z,5.60
2018-07-22T21:41:44.008Z,6.33
2018-07-22T21:46:48.352Z,7.10
2018-07-22T21:51:51.606Z,6.87
2018-07-22T21:56:54.943Z,7.00
2018-07-22T22:01:59.917Z,7.70
2018-07-22T22:07:03.426Z,8.43
2018-07-22T22:12:06.744Z,6.90
2018-07-22T22:17:10.462Z,8.57
2018-07-22T22:22:13.762Z,9.60
2018-07-22T22:27:17.014Z,8.97
2018-07-22T22:32:20.610Z,9.50
2018-07-22T22:37:24.332Z,10.10
2018-07-22T22:42:27.785Z,9.20
2018-07-22T22:47:39.460Z,9.63
2018-07-22T22:52:43.883Z,9.53
2018-07-22T22:57:58.112Z,11.13
2018-07-22T23:03:03.038Z,9.30
2018-07-22T23:08:06.883Z,11.10
2018-07-22T23:13:10.445Z,7.60
2018-07-22T23:18:14.357Z,7.17
2018-07-22T23:23:18.410Z,6.10
2018-07-22T23:28:21.917Z,9.10
2018-07-22T23:33:25.482Z,7.20
2018-07-22T23:38:29.296Z,4.10
2018-07-22T23:43:33.145Z,6.17
2018-07-22T23:48:37.357Z,3.50
2018-07-22T23:53:41.196Z,3.90
2018-07-22T23:58:44.556Z,3.13
